EGXZ - Topcliffe Royal Air Force Base
Distance from station: E 5mi, 14km
Updated: 12/11/2017 7:50pm
Mostly Cloudy
Mostly Cloudy
 Wind from N
Wind: N 3 mph , 6 km/h
Temperature: 28°F , -2°C
Dew Point: 28°F , -2°C
Humidity: 100%
Barometer: 29.62 inHg , 1003 hPa
Clouds: Mostly Cloudy
Visibility: 6 miles , 10 km
Cloud details: Mostly Cloudy 3700 ft
2017/12/12 03:50 EGXZ 120350Z AUTO 01003KT 9999 BKN037/// M02/M02 Q1003